sensor_id;sensor_type;location;lat;lon;timestamp;pressure;altitude;pressure_sealevel;temperature;humidity
76594;BME280;65482;50.240;14.302;2023-09-19T00:01:06;98975.41;;;17.08;78.15
76594;BME280;65482;50.240;14.302;2023-09-19T00:03:39;98988.00;;;17.01;78.16
76594;BME280;65482;50.240;14.302;2023-09-19T00:06:07;98992.53;;;16.94;78.12
76594;BME280;65482;50.240;14.302;2023-09-19T00:08:34;98989.31;;;16.85;78.27
76594;BME280;65482;50.240;14.302;2023-09-19T00:10:59;98984.22;;;16.77;78.53
76594;BME280;65482;50.240;14.302;2023-09-19T00:13:29;98979.69;;;16.78;78.15
76594;BME280;65482;50.240;14.302;2023-09-19T00:15:56;98980.72;;;16.77;78.40
76594;BME280;65482;50.240;14.302;2023-09-19T00:18:25;98988.28;;;16.80;78.16
76594;BME280;65482;50.240;14.302;2023-09-19T00:21:00;98984.41;;;16.82;77.90
76594;BME280;65482;50.240;14.302;2023-09-19T00:23:27;98995.22;;;16.81;77.61
76594;BME280;65482;50.240;14.302;2023-09-19T00:25:53;98982.78;;;16.81;77.55
76594;BME280;65482;50.240;14.302;2023-09-19T00:28:22;98979.06;;;16.82;77.19
76594;BME280;65482;50.240;14.302;2023-09-19T00:30:48;98981.53;;;16.84;76.90
76594;BME280;65482;50.240;14.302;2023-09-19T00:33:21;98975.59;;;16.82;76.87
76594;BME280;65482;50.240;14.302;2023-09-19T00:35:51;98982.53;;;16.83;76.63
76594;BME280;65482;50.240;14.302;2023-09-19T00:38:18;98987.66;;;16.84;76.28
76594;BME280;65482;50.240;14.302;2023-09-19T00:40:47;98992.34;;;16.89;76.17
76594;BME280;65482;50.240;14.302;2023-09-19T00:43:13;98987.47;;;16.86;76.30
76594;BME280;65482;50.240;14.302;2023-09-19T00:45:43;98985.00;;;16.84;76.01
76594;BME280;65482;50.240;14.302;2023-09-19T00:48:08;98984.41;;;16.82;76.14
76594;BME280;65482;50.240;14.302;2023-09-19T00:50:35;98978.06;;;16.83;75.98
76594;BME280;65482;50.240;14.302;2023-09-19T00:53:02;98978.06;;;16.83;75.91
76594;BME280;65482;50.240;14.302;2023-09-19T00:55:36;98974.38;;;16.78;75.81
76594;BME280;65482;50.240;14.302;2023-09-19T00:58:03;98969.91;;;16.72;76.16
76594;BME280;65482;50.240;14.302;2023-09-19T01:00:32;98969.28;;;16.69;76.19
76594;BME280;65482;50.240;14.302;2023-09-19T01:03:00;98970.31;;;16.68;76.08
76594;BME280;65482;50.240;14.302;2023-09-19T01:05:29;98974.00;;;16.67;76.25
76594;BME280;65482;50.240;14.302;2023-09-19T01:07:58;98971.56;;;16.66;76.42
76594;BME280;65482;50.240;14.302;2023-09-19T01:10:24;98970.16;;;16.63;76.26
76594;BME280;65482;50.240;14.302;2023-09-19T01:13:31;98973.81;;;16.62;76.02
76594;BME280;65482;50.240;14.302;2023-09-19T01:18:52;98962.56;;;16.60;76.18
76594;BME280;65482;50.240;14.302;2023-09-19T01:29:38;98967.69;;;16.62;76.02
76594;BME280;65482;50.240;14.302;2023-09-19T01:32:06;98968.50;;;16.62;76.02
76594;BME280;65482;50.240;14.302;2023-09-19T01:37:14;98959.88;;;16.67;75.41
76594;BME280;65482;50.240;14.302;2023-09-19T01:39:47;98969.91;;;16.65;75.62
76594;BME280;65482;50.240;14.302;2023-09-19T01:42:27;98956.59;;;16.65;75.29
76594;BME280;65482;50.240;14.302;2023-09-19T01:47:48;98957.00;;;16.68;75.27
76594;BME280;65482;50.240;14.302;2023-09-19T01:50:30;98964.19;;;16.68;75.43
76594;BME280;65482;50.240;14.302;2023-09-19T01:53:15;98951.25;;;16.72;74.94
76594;BME280;65482;50.240;14.302;2023-09-19T01:55:43;98955.50;;;16.79;75.09
76594;BME280;65482;50.240;14.302;2023-09-19T01:58:39;98952.63;;;16.81;74.66
76594;BME280;65482;50.240;14.302;2023-09-19T02:01:11;98960.44;;;16.82;74.70
76594;BME280;65482;50.240;14.302;2023-09-19T02:03:38;98957.34;;;16.85;74.97
76594;BME280;65482;50.240;14.302;2023-09-19T02:06:05;98956.31;;;16.86;74.73
76594;BME280;65482;50.240;14.302;2023-09-19T02:08:36;98958.75;;;16.88;74.59
76594;BME280;65482;50.240;14.302;2023-09-19T02:11:02;98954.44;;;16.87;74.57
76594;BME280;65482;50.240;14.302;2023-09-19T02:13:28;98957.28;;;16.92;74.16
76594;BME280;65482;50.240;14.302;2023-09-19T02:15:54;98956.63;;;16.97;73.64
76594;BME280;65482;50.240;14.302;2023-09-19T02:18:21;98950.09;;;16.99;73.69
76594;BME280;65482;50.240;14.302;2023-09-19T02:20:47;98959.50;;;17.02;73.83
76594;BME280;65482;50.240;14.302;2023-09-19T02:23:13;98954.56;;;17.05;73.55
76594;BME280;65482;50.240;14.302;2023-09-19T02:25:39;98954.94;;;17.09;73.54
76594;BME280;65482;50.240;14.302;2023-09-19T02:28:05;98961.22;;;17.15;73.04
76594;BME280;65482;50.240;14.302;2023-09-19T02:30:32;98966.19;;;17.11;73.33
76594;BME280;65482;50.240;14.302;2023-09-19T02:32:58;98963.09;;;17.14;73.04
76594;BME280;65482;50.240;14.302;2023-09-19T02:35:27;98970.88;;;17.16;73.07
76594;BME280;65482;50.240;14.302;2023-09-19T02:37:53;98971.25;;;17.19;72.96
76594;BME280;65482;50.240;14.302;2023-09-19T02:40:19;98978.19;;;17.20;72.91
76594;BME280;65482;50.240;14.302;2023-09-19T02:42:48;98976.72;;;17.24;72.44
76594;BME280;65482;50.240;14.302;2023-09-19T02:45:18;98982.66;;;17.26;72.49
76594;BME280;65482;50.240;14.302;2023-09-19T02:47:47;98978.78;;;17.29;72.12
76594;BME280;65482;50.240;14.302;2023-09-19T02:50:14;98979.59;;;17.29;72.33
76594;BME280;65482;50.240;14.302;2023-09-19T02:52:42;98978.31;;;17.32;71.94
76594;BME280;65482;50.240;14.302;2023-09-19T02:55:17;98982.38;;;17.35;71.89
76594;BME280;65482;50.240;14.302;2023-09-19T02:57:54;98976.69;;;17.31;71.99
76594;BME280;65482;50.240;14.302;2023-09-19T03:00:21;98982.03;;;17.31;71.78
76594;BME280;65482;50.240;14.302;2023-09-19T03:02:54;98980.78;;;17.34;72.04
76594;BME280;65482;50.240;14.302;2023-09-19T03:05:22;98972.31;;;17.37;71.88
76594;BME280;65482;50.240;14.302;2023-09-19T03:07:49;98965.16;;;17.37;71.72
76594;BME280;65482;50.240;14.302;2023-09-19T03:10:18;98978.72;;;17.36;71.73
76594;BME280;65482;50.240;14.302;2023-09-19T03:12:44;98969.91;;;17.35;71.81
76594;BME280;65482;50.240;14.302;2023-09-19T03:15:10;98970.91;;;17.34;71.92
76594;BME280;65482;50.240;14.302;2023-09-19T03:17:36;98969.06;;;17.35;71.91
76594;BME280;65482;50.240;14.302;2023-09-19T03:20:03;98975.06;;;17.30;72.00
76594;BME280;65482;50.240;14.302;2023-09-19T03:22:34;98977.50;;;17.32;72.15
76594;BME280;65482;50.240;14.302;2023-09-19T03:25:00;98974.63;;;17.33;72.29
76594;BME280;65482;50.240;14.302;2023-09-19T03:27:26;98982.03;;;17.31;72.09
76594;BME280;65482;50.240;14.302;2023-09-19T03:29:52;98975.25;;;17.28;72.20
76594;BME280;65482;50.240;14.302;2023-09-19T03:32:19;98977.94;;;17.28;72.19
76594;BME280;65482;50.240;14.302;2023-09-19T03:34:45;98970.38;;;17.25;72.37
76594;BME280;65482;50.240;14.302;2023-09-19T03:37:13;98974.28;;;17.23;72.62
76594;BME280;65482;50.240;14.302;2023-09-19T03:39:39;98980.88;;;17.20;72.66
76594;BME280;65482;50.240;14.302;2023-09-19T03:42:05;98977.41;;;17.20;72.42
76594;BME280;65482;50.240;14.302;2023-09-19T03:44:32;98975.75;;;17.19;72.57
76594;BME280;65482;50.240;14.302;2023-09-19T03:46:58;98977.00;;;17.16;72.85
76594;BME280;65482;50.240;14.302;2023-09-19T03:49:24;98968.84;;;17.11;72.79
76594;BME280;65482;50.240;14.302;2023-09-19T03:51:50;98977.47;;;17.06;73.11
76594;BME280;65482;50.240;14.302;2023-09-19T03:54:15;98982.81;;;17.06;73.09
76594;BME280;65482;50.240;14.302;2023-09-19T03:56:42;98985.31;;;17.01;73.05
76594;BME280;65482;50.240;14.302;2023-09-19T03:59:09;98984.47;;;17.01;73.17
76594;BME280;65482;50.240;14.302;2023-09-19T04:01:35;98990.66;;;17.01;73.30
76594;BME280;65482;50.240;14.302;2023-09-19T04:04:01;98989.22;;;16.99;73.31
76594;BME280;65482;50.240;14.302;2023-09-19T04:06:34;98991.28;;;16.97;73.52
76594;BME280;65482;50.240;14.302;2023-09-19T04:09:04;98990.06;;;16.93;73.62
76594;BME280;65482;50.240;14.302;2023-09-19T04:11:32;98995.63;;;16.91;73.65
76594;BME280;65482;50.240;14.302;2023-09-19T04:13:58;99001.56;;;16.93;73.59
76594;BME280;65482;50.240;14.302;2023-09-19T04:16:24;99001.31;;;16.95;73.46
76594;BME280;65482;50.240;14.302;2023-09-19T04:18:50;99001.97;;;16.90;73.72
76594;BME280;65482;50.240;14.302;2023-09-19T04:21:16;99004.44;;;16.92;73.49
76594;BME280;65482;50.240;14.302;2023-09-19T04:23:42;99002.78;;;16.90;73.92
76594;BME280;65482;50.240;14.302;2023-09-19T04:26:08;99003.19;;;16.94;73.45
76594;BME280;65482;50.240;14.302;2023-09-19T04:28:34;99023.03;;;16.98;73.45
76594;BME280;65482;50.240;14.302;2023-09-19T04:31:00;99022.81;;;17.00;73.26
76594;BME280;65482;50.240;14.302;2023-09-19T04:33:26;99016.69;;;16.99;73.48
76594;BME280;65482;50.240;14.302;2023-09-19T04:35:54;99013.19;;;16.99;73.23
76594;BME280;65482;50.240;14.302;2023-09-19T04:38:21;99028.38;;;16.98;73.54
76594;BME280;65482;50.240;14.302;2023-09-19T04:40:47;99029.41;;;16.97;73.56
76594;BME280;65482;50.240;14.302;2023-09-19T04:43:13;99027.94;;;17.01;73.63
76594;BME280;65482;50.240;14.302;2023-09-19T04:45:41;99024.44;;;17.07;73.22
76594;BME280;65482;50.240;14.302;2023-09-19T04:48:06;99025.66;;;17.05;73.24
76594;BME280;65482;50.240;14.302;2023-09-19T04:50:34;99029.75;;;17.07;73.02
76594;BME280;65482;50.240;14.302;2023-09-19T04:53:00;99035.69;;;17.09;73.12
76594;BME280;65482;50.240;14.302;2023-09-19T04:55:26;99041.00;;;17.09;72.82
76594;BME280;65482;50.240;14.302;2023-09-19T04:57:52;99048.56;;;17.13;73.11
76594;BME280;65482;50.240;14.302;2023-09-19T05:00:22;99057.41;;;17.13;72.78
76594;BME280;65482;50.240;14.302;2023-09-19T05:02:57;99064.59;;;17.06;73.19
76594;BME280;65482;50.240;14.302;2023-09-19T05:05:23;99058.06;;;17.02;73.36
76594;BME280;65482;50.240;14.302;2023-09-19T05:07:51;99063.00;;;16.98;73.36
76594;BME280;65482;50.240;14.302;2023-09-19T05:10:18;99057.88;;;16.97;73.51
76594;BME280;65482;50.240;14.302;2023-09-19T05:12:44;99060.94;;;17.00;73.30
76594;BME280;65482;50.240;14.302;2023-09-19T05:15:13;99058.66;;;17.04;73.21
76594;BME280;65482;50.240;14.302;2023-09-19T05:17:50;99066.25;;;17.00;73.34
76594;BME280;65482;50.240;14.302;2023-09-19T05:20:17;99072.84;;;16.98;73.41
76594;BME280;65482;50.240;14.302;2023-09-19T05:23:04;99071.81;;;16.99;73.26
76594;BME280;65482;50.240;14.302;2023-09-19T05:25:33;99071.38;;;17.02;73.38
76594;BME280;65482;50.240;14.302;2023-09-19T05:35:31;99091.66;;;17.09;73.07
76594;BME280;65482;50.240;14.302;2023-09-19T05:48:42;99084.28;;;17.37;71.70
76594;BME280;65482;50.240;14.302;2023-09-19T06:08:35;99131.59;;;17.80;70.61
76594;BME280;65482;50.240;14.302;2023-09-19T06:11:10;99132.63;;;17.85;70.23
76594;BME280;65482;50.240;14.302;2023-09-19T06:14:08;99133.00;;;17.89;70.65
76594;BME280;65482;50.240;14.302;2023-09-19T06:16:42;99127.00;;;17.94;70.95
76594;BME280;65482;50.240;14.302;2023-09-19T06:19:09;99131.84;;;18.03;69.86
76594;BME280;65482;50.240;14.302;2023-09-19T06:21:37;99140.63;;;18.11;70.73
76594;BME280;65482;50.240;14.302;2023-09-19T06:24:14;99150.56;;;18.22;69.14
76594;BME280;65482;50.240;14.302;2023-09-19T06:26:46;99158.84;;;18.39;69.07
76594;BME280;65482;50.240;14.302;2023-09-19T06:29:36;99151.66;;;18.58;68.58
76594;BME280;65482;50.240;14.302;2023-09-19T06:32:07;99157.41;;;18.80;67.37
76594;BME280;65482;50.240;14.302;2023-09-19T06:34:37;99168.44;;;18.90;66.71
76594;BME280;65482;50.240;14.302;2023-09-19T06:40:55;99169.53;;;19.01;66.84
76594;BME280;65482;50.240;14.302;2023-09-19T07:05:05;99198.22;;;20.15;62.79
76594;BME280;65482;50.240;14.302;2023-09-19T07:11:43;99207.81;;;20.58;60.14
76594;BME280;65482;50.240;14.302;2023-09-19T07:14:16;99213.78;;;20.72;60.33
76594;BME280;65482;50.240;14.302;2023-09-19T07:17:16;99208.66;;;20.82;59.52
76594;BME280;65482;50.240;14.302;2023-09-19T07:24:29;99216.69;;;20.70;59.37
76594;BME280;65482;50.240;14.302;2023-09-19T07:27:31;99218.22;;;20.66;60.42
76594;BME280;65482;50.240;14.302;2023-09-19T07:31:12;99223.69;;;20.71;60.55
76594;BME280;65482;50.240;14.302;2023-09-19T07:34:23;99222.50;;;20.43;60.92
76594;BME280;65482;50.240;14.302;2023-09-19T07:37:24;99223.16;;;20.39;61.73
76594;BME280;65482;50.240;14.302;2023-09-19T08:16:11;99254.38;;;21.28;57.60
76594;BME280;65482;50.240;14.302;2023-09-19T08:19:19;99265.66;;;21.53;56.79
76594;BME280;65482;50.240;14.302;2023-09-19T08:26:02;99265.41;;;21.67;56.10
76594;BME280;65482;50.240;14.302;2023-09-19T08:29:33;99258.19;;;21.55;56.21
76594;BME280;65482;50.240;14.302;2023-09-19T09:21:44;99260.03;;;22.97;52.45
76594;BME280;65482;50.240;14.302;2023-09-19T09:48:34;99264.69;;;24.81;44.52
76594;BME280;65482;50.240;14.302;2023-09-19T09:51:47;99275.47;;;24.87;44.03
76594;BME280;65482;50.240;14.302;2023-09-19T10:25:16;99280.19;;;24.05;41.22
76594;BME280;65482;50.240;14.302;2023-09-19T10:28:07;99269.41;;;24.05;40.05
76594;BME280;65482;50.240;14.302;2023-09-19T10:32:06;99275.69;;;24.10;39.27
76594;BME280;65482;50.240;14.302;2023-09-19T10:38:30;99276.72;;;24.36;38.54
76594;BME280;65482;50.240;14.302;2023-09-19T10:41:01;99282.97;;;24.42;38.69
76594;BME280;65482;50.240;14.302;2023-09-19T10:43:32;99274.31;;;24.40;38.44
76594;BME280;65482;50.240;14.302;2023-09-19T10:46:05;99273.09;;;24.53;38.75
76594;BME280;65482;50.240;14.302;2023-09-19T10:48:32;99267.88;;;24.73;38.29
76594;BME280;65482;50.240;14.302;2023-09-19T10:51:06;99264.97;;;24.85;38.19
76594;BME280;65482;50.240;14.302;2023-09-19T10:53:54;99274.63;;;24.76;37.92
76594;BME280;65482;50.240;14.302;2023-09-19T10:56:26;99276.22;;;24.77;38.07
76594;BME280;65482;50.240;14.302;2023-09-19T10:59:22;99271.00;;;24.60;38.47
76594;BME280;65482;50.240;14.302;2023-09-19T11:01:53;99279.03;;;24.55;39.20
76594;BME280;65482;50.240;14.302;2023-09-19T11:04:33;99276.69;;;24.64;39.22
76594;BME280;65482;50.240;14.302;2023-09-19T11:14:49;99268.13;;;24.72;37.32
76594;BME280;65482;50.240;14.302;2023-09-19T11:20:30;99274.31;;;24.72;36.39
76594;BME280;65482;50.240;14.302;2023-09-19T11:23:52;99270.25;;;24.70;35.56
76594;BME280;65482;50.240;14.302;2023-09-19T11:27:14;99275.41;;;24.71;35.82
76594;BME280;65482;50.240;14.302;2023-09-19T11:31:40;99255.50;;;24.83;35.71
76594;BME280;65482;50.240;14.302;2023-09-19T11:35:18;99245.84;;;24.92;36.31
76594;BME280;65482;50.240;14.302;2023-09-19T11:42:05;99269.22;;;24.76;34.25
76594;BME280;65482;50.240;14.302;2023-09-19T11:48:33;99253.72;;;24.56;34.22
76594;BME280;65482;50.240;14.302;2023-09-19T11:51:24;99259.66;;;24.58;34.56
76594;BME280;65482;50.240;14.302;2023-09-19T11:54:18;99263.69;;;24.55;34.51
76594;BME280;65482;50.240;14.302;2023-09-19T11:56:49;99273.03;;;24.48;35.31
76594;BME280;65482;50.240;14.302;2023-09-19T12:01:52;99272.59;;;24.29;35.22
76594;BME280;65482;50.240;14.302;2023-09-19T12:04:41;99273.72;;;24.33;34.56
76594;BME280;65482;50.240;14.302;2023-09-19T12:07:11;99271.53;;;24.30;34.27
76594;BME280;65482;50.240;14.302;2023-09-19T12:09:45;99276.06;;;24.24;33.95
76594;BME280;65482;50.240;14.302;2023-09-19T12:12:19;99269.91;;;24.29;33.99
76594;BME280;65482;50.240;14.302;2023-09-19T12:14:48;99269.41;;;24.32;33.34
76594;BME280;65482;50.240;14.302;2023-09-19T12:17:17;99267.81;;;24.36;33.83
76594;BME280;65482;50.240;14.302;2023-09-19T12:27:49;99265.25;;;24.89;33.68
76594;BME280;65482;50.240;14.302;2023-09-19T12:30:19;99257.25;;;25.04;33.42
76594;BME280;65482;50.240;14.302;2023-09-19T12:32:48;99254.03;;;25.07;33.46
76594;BME280;65482;50.240;14.302;2023-09-19T12:35:28;99251.63;;;25.16;33.38
76594;BME280;65482;50.240;14.302;2023-09-19T12:37:58;99265.44;;;25.19;32.86
76594;BME280;65482;50.240;14.302;2023-09-19T12:40:32;99251.88;;;25.09;32.95
76594;BME280;65482;50.240;14.302;2023-09-19T12:43:03;99247.75;;;24.96;33.71
76594;BME280;65482;50.240;14.302;2023-09-19T12:45:33;99244.81;;;24.98;33.88
76594;BME280;65482;50.240;14.302;2023-09-19T12:48:23;99239.91;;;24.90;33.64
76594;BME280;65482;50.240;14.302;2023-09-19T12:51:01;99247.09;;;24.74;34.09
76594;BME280;65482;50.240;14.302;2023-09-19T12:53:31;99244.28;;;24.58;34.47
76594;BME280;65482;50.240;14.302;2023-09-19T12:56:00;99242.44;;;24.64;34.19
76594;BME280;65482;50.240;14.302;2023-09-19T12:58:26;99244.81;;;24.55;34.36
76594;BME280;65482;50.240;14.302;2023-09-19T13:00:52;99248.47;;;24.44;34.72
76594;BME280;65482;50.240;14.302;2023-09-19T13:03:34;99248.97;;;24.41;34.96
76594;BME280;65482;50.240;14.302;2023-09-19T13:06:02;99244.41;;;24.41;34.91
76594;BME280;65482;50.240;14.302;2023-09-19T13:08:31;99247.88;;;24.37;35.04
76594;BME280;65482;50.240;14.302;2023-09-19T13:11:21;99242.47;;;24.32;34.90
76594;BME280;65482;50.240;14.302;2023-09-19T13:13:50;99248.16;;;24.40;34.95
76594;BME280;65482;50.240;14.302;2023-09-19T13:16:21;99249.59;;;24.48;35.04
76594;BME280;65482;50.240;14.302;2023-09-19T13:18:54;99252.63;;;24.52;34.65
76594;BME280;65482;50.240;14.302;2023-09-19T13:21:32;99242.88;;;24.51;34.62
76594;BME280;65482;50.240;14.302;2023-09-19T13:24:24;99244.19;;;24.48;34.77
76594;BME280;65482;50.240;14.302;2023-09-19T13:26:59;99244.19;;;24.48;35.06
76594;BME280;65482;50.240;14.302;2023-09-19T13:29:25;99243.09;;;24.44;34.96
76594;BME280;65482;50.240;14.302;2023-09-19T13:31:52;99241.03;;;24.51;34.95
76594;BME280;65482;50.240;14.302;2023-09-19T13:34:21;99241.03;;;24.51;34.79
76594;BME280;65482;50.240;14.302;2023-09-19T13:36:48;99232.59;;;24.48;35.37
76594;BME280;65482;50.240;14.302;2023-09-19T13:39:14;99237.44;;;24.46;34.64
76594;BME280;65482;50.240;14.302;2023-09-19T13:41:49;99243.03;;;24.39;34.53
76594;BME280;65482;50.240;14.302;2023-09-19T13:44:15;99238.69;;;24.33;34.94
76594;BME280;65482;50.240;14.302;2023-09-19T13:46:42;99240.22;;;24.24;35.30
76594;BME280;65482;50.240;14.302;2023-09-19T13:49:11;99231.63;;;24.27;35.35
76594;BME280;65482;50.240;14.302;2023-09-19T13:51:37;99238.16;;;24.36;35.06
76594;BME280;65482;50.240;14.302;2023-09-19T13:54:02;99228.72;;;24.33;35.20
76594;BME280;65482;50.240;14.302;2023-09-19T13:56:28;99235.00;;;24.44;34.56
76594;BME280;65482;50.240;14.302;2023-09-19T13:58:58;99239.03;;;24.41;34.59
76594;BME280;65482;50.240;14.302;2023-09-19T14:01:25;99228.13;;;24.26;34.78
76594;BME280;65482;50.240;14.302;2023-09-19T14:03:58;99235.59;;;24.19;34.82
76594;BME280;65482;50.240;14.302;2023-09-19T14:06:24;99236.63;;;24.13;35.21
76594;BME280;65482;50.240;14.302;2023-09-19T14:08:50;99232.72;;;24.26;34.85
76594;BME280;65482;50.240;14.302;2023-09-19T14:14:34;99216.47;;;24.20;35.07
76594;BME280;65482;50.240;14.302;2023-09-19T14:22:14;99221.06;;;24.20;34.86
76594;BME280;65482;50.240;14.302;2023-09-19T14:31:36;99218.00;;;24.11;34.60
76594;BME280;65482;50.240;14.302;2023-09-19T14:39:54;99228.69;;;24.01;34.62
76594;BME280;65482;50.240;14.302;2023-09-19T14:42:56;99221.81;;;23.83;34.64
76594;BME280;65482;50.240;14.302;2023-09-19T14:45:22;99222.38;;;23.85;34.96
76594;BME280;65482;50.240;14.302;2023-09-19T14:47:51;99226.38;;;23.82;34.78
76594;BME280;65482;50.240;14.302;2023-09-19T14:50:25;99217.25;;;23.84;34.74
76594;BME280;65482;50.240;14.302;2023-09-19T14:52:52;99225.81;;;23.80;34.79
76594;BME280;65482;50.240;14.302;2023-09-19T14:55:20;99230.66;;;23.78;35.09
76594;BME280;65482;50.240;14.302;2023-09-19T14:57:49;99228.19;;;23.77;34.72
76594;BME280;65482;50.240;14.302;2023-09-19T15:00:19;99233.22;;;23.68;34.69
76594;BME280;65482;50.240;14.302;2023-09-19T15:02:49;99235.13;;;23.73;34.67
76594;BME280;65482;50.240;14.302;2023-09-19T15:05:19;99227.06;;;23.73;34.49
76594;BME280;65482;50.240;14.302;2023-09-19T15:07:45;99233.22;;;23.68;35.15
76594;BME280;65482;50.240;14.302;2023-09-19T15:10:14;99234.53;;;23.66;35.12
76594;BME280;65482;50.240;14.302;2023-09-19T15:12:48;99234.03;;;23.69;34.43
76594;BME280;65482;50.240;14.302;2023-09-19T15:15:22;99230.97;;;23.60;34.54
76594;BME280;65482;50.240;14.302;2023-09-19T15:17:50;99237.41;;;23.59;34.91
76594;BME280;65482;50.240;14.302;2023-09-19T15:20:31;99242.19;;;23.52;35.52
76594;BME280;65482;50.240;14.302;2023-09-19T15:22:59;99237.50;;;23.42;35.68
76594;BME280;65482;50.240;14.302;2023-09-19T15:25:26;99230.13;;;23.32;35.29
76594;BME280;65482;50.240;14.302;2023-09-19T15:27:54;99237.88;;;23.29;35.38
76594;BME280;65482;50.240;14.302;2023-09-19T15:30:20;99233.50;;;23.22;35.56
76594;BME280;65482;50.240;14.302;2023-09-19T15:32:49;99233.50;;;23.22;35.74
76594;BME280;65482;50.240;14.302;2023-09-19T15:35:17;99237.81;;;23.23;36.05
76594;BME280;65482;50.240;14.302;2023-09-19T15:37:44;99229.94;;;23.17;35.78
76594;BME280;65482;50.240;14.302;2023-09-19T15:40:13;99231.00;;;23.16;36.33
76594;BME280;65482;50.240;14.302;2023-09-19T15:42:39;99229.94;;;23.17;35.44
76594;BME280;65482;50.240;14.302;2023-09-19T15:45:05;99236.06;;;23.12;34.93
76594;BME280;65482;50.240;14.302;2023-09-19T15:47:32;99242.34;;;23.01;34.41
76594;BME280;65482;50.240;14.302;2023-09-19T15:49:57;99231.50;;;22.96;34.12
76594;BME280;65482;50.240;14.302;2023-09-19T15:52:23;99233.34;;;22.90;33.98
76594;BME280;65482;50.240;14.302;2023-09-19T15:54:51;99232.44;;;22.84;33.99
76594;BME280;65482;50.240;14.302;2023-09-19T15:57:17;99248.09;;;22.71;34.27
76594;BME280;65482;50.240;14.302;2023-09-19T15:59:43;99237.78;;;22.62;34.75
76594;BME280;65482;50.240;14.302;2023-09-19T16:02:14;99242.00;;;22.58;34.88
76594;BME280;65482;50.240;14.302;2023-09-19T16:04:40;99242.09;;;22.47;35.14
76594;BME280;65482;50.240;14.302;2023-09-19T16:07:15;99237.16;;;22.38;35.11
76594;BME280;65482;50.240;14.302;2023-09-19T16:09:41;99240.47;;;22.29;35.45
76594;BME280;65482;50.240;14.302;2023-09-19T16:12:23;99246.47;;;22.19;36.02
76594;BME280;65482;50.240;14.302;2023-09-19T16:14:53;99239.63;;;22.11;36.51
76594;BME280;65482;50.240;14.302;2023-09-19T16:17:18;99242.38;;;21.99;36.64
76594;BME280;65482;50.240;14.302;2023-09-19T16:19:44;99251.16;;;21.95;37.15
76594;BME280;65482;50.240;14.302;2023-09-19T16:22:10;99250.47;;;21.88;37.48
76594;BME280;65482;50.240;14.302;2023-09-19T16:24:39;99255.16;;;21.80;37.57
76594;BME280;65482;50.240;14.302;2023-09-19T16:27:05;99248.81;;;21.70;38.01
76594;BME280;65482;50.240;14.302;2023-09-19T16:29:35;99257.09;;;21.68;38.14
76594;BME280;65482;50.240;14.302;2023-09-19T16:32:01;99258.28;;;21.60;38.32
76594;BME280;65482;50.240;14.302;2023-09-19T16:34:33;99261.59;;;21.51;38.73
76594;BME280;65482;50.240;14.302;2023-09-19T16:37:00;99260.75;;;21.38;38.90
76594;BME280;65482;50.240;14.302;2023-09-19T16:39:26;99264.41;;;21.32;39.17
76594;BME280;65482;50.240;14.302;2023-09-19T16:41:53;99258.81;;;21.22;39.58
76594;BME280;65482;50.240;14.302;2023-09-19T16:44:34;99261.75;;;21.09;39.94
76594;BME280;65482;50.240;14.302;2023-09-19T16:47:06;99262.97;;;21.01;39.84
76594;BME280;65482;50.240;14.302;2023-09-19T16:49:32;99263.28;;;20.93;40.10
76594;BME280;65482;50.240;14.302;2023-09-19T16:51:59;99267.75;;;20.87;40.06
76594;BME280;65482;50.240;14.302;2023-09-19T16:54:25;99268.91;;;20.79;40.04
76594;BME280;65482;50.240;14.302;2023-09-19T16:56:52;99270.50;;;20.69;40.73
76594;BME280;65482;50.240;14.302;2023-09-19T16:59:18;99278.28;;;20.58;40.83
76594;BME280;65482;50.240;14.302;2023-09-19T17:01:45;99272.81;;;20.41;41.48
76594;BME280;65482;50.240;14.302;2023-09-19T17:04:12;99277.56;;;20.27;42.10
76594;BME280;65482;50.240;14.302;2023-09-19T17:06:39;99281.81;;;20.17;42.24
76594;BME280;65482;50.240;14.302;2023-09-19T17:09:07;99281.34;;;20.08;42.44
76594;BME280;65482;50.240;14.302;2023-09-19T17:11:37;99280.22;;;19.97;42.78
76594;BME280;65482;50.240;14.302;2023-09-19T17:14:03;99278.78;;;19.83;43.09
76594;BME280;65482;50.240;14.302;2023-09-19T17:16:30;99284.09;;;19.71;43.40
76594;BME280;65482;50.240;14.302;2023-09-19T17:18:59;99290.31;;;19.65;43.51
76594;BME280;65482;50.240;14.302;2023-09-19T17:21:28;99292.28;;;19.58;43.80
76594;BME280;65482;50.240;14.302;2023-09-19T17:23:54;99305.13;;;19.49;44.11
76594;BME280;65482;50.240;14.302;2023-09-19T17:26:21;99299.03;;;19.42;44.00
76594;BME280;65482;50.240;14.302;2023-09-19T17:28:48;99296.22;;;19.37;44.17
76594;BME280;65482;50.240;14.302;2023-09-19T17:31:23;99298.59;;;19.26;44.18
76594;BME280;65482;50.240;14.302;2023-09-19T17:33:50;99299.47;;;19.20;44.44
76594;BME280;65482;50.240;14.302;2023-09-19T17:36:21;99300.00;;;19.11;44.60
76594;BME280;65482;50.240;14.302;2023-09-19T17:38:48;99303.16;;;19.01;44.87
76594;BME280;65482;50.240;14.302;2023-09-19T17:41:15;99296.84;;;18.95;44.94
76594;BME280;65482;50.240;14.302;2023-09-19T17:43:43;99310.06;;;18.90;45.42
76594;BME280;65482;50.240;14.302;2023-09-19T17:46:13;99306.41;;;18.84;45.33
76594;BME280;65482;50.240;14.302;2023-09-19T17:48:46;99321.63;;;18.77;45.69
76594;BME280;65482;50.240;14.302;2023-09-19T17:51:14;99316.78;;;18.67;45.83
76594;BME280;65482;50.240;14.302;2023-09-19T17:53:42;99323.44;;;18.58;46.07
76594;BME280;65482;50.240;14.302;2023-09-19T17:56:13;99322.06;;;18.49;46.31
76594;BME280;65482;50.240;14.302;2023-09-19T17:58:42;99326.69;;;18.35;46.97
76594;BME280;65482;50.240;14.302;2023-09-19T18:01:16;99326.50;;;18.30;47.10
76594;BME280;65482;50.240;14.302;2023-09-19T18:03:43;99342.78;;;18.22;47.20